sensor_id;sensor_type;location;lat;lon;timestamp;temperature;humidity
9790;DHT22;4934;50.852;8.098;2022-09-16T00:01:17;11.10;99.90
9790;DHT22;4934;50.852;8.098;2022-09-16T00:03:43;11.10;99.90
9790;DHT22;4934;50.852;8.098;2022-09-16T00:06:27;11.10;99.90
9790;DHT22;4934;50.852;8.098;2022-09-16T00:08:54;11.00;99.90
9790;DHT22;4934;50.852;8.098;2022-09-16T00:11:20;11.10;99.90
9790;DHT22;4934;50.852;8.098;2022-09-16T00:13:46;11.00;99.90
9790;DHT22;4934;50.852;8.098;2022-09-16T00:16:15;11.00;99.90
9790;DHT22;4934;50.852;8.098;2022-09-16T00:18:41;11.10;99.90
9790;DHT22;4934;50.852;8.098;2022-09-16T00:21:07;11.10;99.90
9790;DHT22;4934;50.852;8.098;2022-09-16T00:23:33;11.10;99.90
9790;DHT22;4934;50.852;8.098;2022-09-16T00:25:59;11.10;99.90
9790;DHT22;4934;50.852;8.098;2022-09-16T00:28:25;11.00;99.90
9790;DHT22;4934;50.852;8.098;2022-09-16T00:30:50;11.00;99.90
9790;DHT22;4934;50.852;8.098;2022-09-16T00:33:16;11.00;99.90
9790;DHT22;4934;50.852;8.098;2022-09-16T00:35:42;11.00;99.90
9790;DHT22;4934;50.852;8.098;2022-09-16T00:38:07;11.00;99.90
9790;DHT22;4934;50.852;8.098;2022-09-16T00:40:33;11.00;99.90
9790;DHT22;4934;50.852;8.098;2022-09-16T00:42:59;10.90;99.90
9790;DHT22;4934;50.852;8.098;2022-09-16T00:45:24;10.90;99.90
9790;DHT22;4934;50.852;8.098;2022-09-16T00:47:53;10.90;99.90
9790;DHT22;4934;50.852;8.098;2022-09-16T00:52:45;11.00;99.90
9790;DHT22;4934;50.852;8.098;2022-09-16T00:55:13;11.10;99.90
9790;DHT22;4934;50.852;8.098;2022-09-16T00:57:40;11.10;99.90
9790;DHT22;4934;50.852;8.098;2022-09-16T01:00:06;11.10;99.90
9790;DHT22;4934;50.852;8.098;2022-09-16T01:02:37;11.10;99.90
9790;DHT22;4934;50.852;8.098;2022-09-16T01:05:07;11.10;99.90
9790;DHT22;4934;50.852;8.098;2022-09-16T01:10:01;11.10;99.90
9790;DHT22;4934;50.852;8.098;2022-09-16T01:12:26;11.00;99.90
9790;DHT22;4934;50.852;8.098;2022-09-16T01:14:53;11.10;99.90
9790;DHT22;4934;50.852;8.098;2022-09-16T01:20:15;11.10;99.90
9790;DHT22;4934;50.852;8.098;2022-09-16T01:23:08;11.10;99.90
9790;DHT22;4934;50.852;8.098;2022-09-16T01:31:29;11.10;99.90
9790;DHT22;4934;50.852;8.098;2022-09-16T01:34:09;11.10;99.90
9790;DHT22;4934;50.852;8.098;2022-09-16T01:36:50;11.10;99.90
9790;DHT22;4934;50.852;8.098;2022-09-16T01:47:04;11.10;99.90
9790;DHT22;4934;50.852;8.098;2022-09-16T01:49:46;11.10;99.90
9790;DHT22;4934;50.852;8.098;2022-09-16T01:55:02;11.10;99.90
9790;DHT22;4934;50.852;8.098;2022-09-16T01:57:34;11.10;99.90
9790;DHT22;4934;50.852;8.098;2022-09-16T02:00:04;11.10;99.90
9790;DHT22;4934;50.852;8.098;2022-09-16T02:02:41;11.10;99.90
9790;DHT22;4934;50.852;8.098;2022-09-16T02:05:10;11.10;99.90
9790;DHT22;4934;50.852;8.098;2022-09-16T02:07:38;11.10;99.90
9790;DHT22;4934;50.852;8.098;2022-09-16T02:10:12;11.10;99.90
9790;DHT22;4934;50.852;8.098;2022-09-16T02:12:40;11.10;99.90
9790;DHT22;4934;50.852;8.098;2022-09-16T02:15:07;11.10;99.90
9790;DHT22;4934;50.852;8.098;2022-09-16T02:17:34;11.10;99.90
9790;DHT22;4934;50.852;8.098;2022-09-16T02:20:05;11.10;99.90
9790;DHT22;4934;50.852;8.098;2022-09-16T02:22:39;11.10;99.90
9790;DHT22;4934;50.852;8.098;2022-09-16T02:25:06;11.10;99.90
9790;DHT22;4934;50.852;8.098;2022-09-16T02:27:32;11.10;99.90
9790;DHT22;4934;50.852;8.098;2022-09-16T02:30:02;11.20;99.90
9790;DHT22;4934;50.852;8.098;2022-09-16T02:32:29;11.20;99.90
9790;DHT22;4934;50.852;8.098;2022-09-16T02:34:56;11.20;99.90
9790;DHT22;4934;50.852;8.098;2022-09-16T02:37:32;11.20;99.90
9790;DHT22;4934;50.852;8.098;2022-09-16T02:40:02;11.20;99.90
9790;DHT22;4934;50.852;8.098;2022-09-16T02:42:30;11.20;99.90
9790;DHT22;4934;50.852;8.098;2022-09-16T02:44:56;11.10;99.90
9790;DHT22;4934;50.852;8.098;2022-09-16T02:47:28;11.10;99.90
9790;DHT22;4934;50.852;8.098;2022-09-16T02:49:56;11.20;99.90
9790;DHT22;4934;50.852;8.098;2022-09-16T02:57:24;11.10;99.90
9790;DHT22;4934;50.852;8.098;2022-09-16T02:59:50;11.10;99.90
9790;DHT22;4934;50.852;8.098;2022-09-16T03:02:16;11.00;99.90
9790;DHT22;4934;50.852;8.098;2022-09-16T03:04:41;11.00;99.90
9790;DHT22;4934;50.852;8.098;2022-09-16T03:07:07;10.90;99.90
9790;DHT22;4934;50.852;8.098;2022-09-16T03:09:34;10.80;99.90
9790;DHT22;4934;50.852;8.098;2022-09-16T03:20:02;10.80;99.90
9790;DHT22;4934;50.852;8.098;2022-09-16T03:27:51;10.80;99.90
9790;DHT22;4934;50.852;8.098;2022-09-16T03:30:18;10.80;99.90
9790;DHT22;4934;50.852;8.098;2022-09-16T03:32:55;10.70;99.90
9790;DHT22;4934;50.852;8.098;2022-09-16T03:35:23;10.80;99.90
9790;DHT22;4934;50.852;8.098;2022-09-16T03:37:52;10.70;99.90
9790;DHT22;4934;50.852;8.098;2022-09-16T03:40:18;10.70;99.90
9790;DHT22;4934;50.852;8.098;2022-09-16T03:42:44;10.80;99.90
9790;DHT22;4934;50.852;8.098;2022-09-16T03:45:20;10.90;99.90
9790;DHT22;4934;50.852;8.098;2022-09-16T03:47:46;10.80;99.90
9790;DHT22;4934;50.852;8.098;2022-09-16T03:50:12;10.80;99.90
9790;DHT22;4934;50.852;8.098;2022-09-16T03:52:38;10.80;99.90
9790;DHT22;4934;50.852;8.098;2022-09-16T03:55:05;10.80;99.90
9790;DHT22;4934;50.852;8.098;2022-09-16T03:57:30;10.80;99.90
9790;DHT22;4934;50.852;8.098;2022-09-16T03:59:56;10.90;99.90
9790;DHT22;4934;50.852;8.098;2022-09-16T04:02:21;10.90;99.90
9790;DHT22;4934;50.852;8.098;2022-09-16T04:04:47;10.90;99.90
9790;DHT22;4934;50.852;8.098;2022-09-16T04:07:12;10.80;99.90
9790;DHT22;4934;50.852;8.098;2022-09-16T04:09:38;10.70;99.90
9790;DHT22;4934;50.852;8.098;2022-09-16T04:12:04;10.80;99.90
9790;DHT22;4934;50.852;8.098;2022-09-16T04:14:32;10.90;99.90
9790;DHT22;4934;50.852;8.098;2022-09-16T04:16:57;10.90;99.90
9790;DHT22;4934;50.852;8.098;2022-09-16T04:19:23;10.90;99.90
9790;DHT22;4934;50.852;8.098;2022-09-16T04:21:49;10.90;99.90
9790;DHT22;4934;50.852;8.098;2022-09-16T04:24:14;10.90;99.90
9790;DHT22;4934;50.852;8.098;2022-09-16T04:26:40;10.80;99.90
9790;DHT22;4934;50.852;8.098;2022-09-16T04:29:06;10.80;99.90
9790;DHT22;4934;50.852;8.098;2022-09-16T04:31:31;10.80;99.90
9790;DHT22;4934;50.852;8.098;2022-09-16T04:33:56;10.80;99.90
9790;DHT22;4934;50.852;8.098;2022-09-16T04:36:22;10.80;99.90
9790;DHT22;4934;50.852;8.098;2022-09-16T04:38:48;10.80;99.90
9790;DHT22;4934;50.852;8.098;2022-09-16T04:41:14;10.70;99.90
9790;DHT22;4934;50.852;8.098;2022-09-16T04:43:40;10.70;99.90
9790;DHT22;4934;50.852;8.098;2022-09-16T04:46:06;10.80;99.90
9790;DHT22;4934;50.852;8.098;2022-09-16T04:48:32;10.70;99.90
9790;DHT22;4934;50.852;8.098;2022-09-16T04:51:05;10.80;99.90
9790;DHT22;4934;50.852;8.098;2022-09-16T04:53:31;10.70;99.90
9790;DHT22;4934;50.852;8.098;2022-09-16T04:56:07;10.70;99.90
9790;DHT22;4934;50.852;8.098;2022-09-16T04:58:34;10.70;99.90
9790;DHT22;4934;50.852;8.098;2022-09-16T05:01:06;10.70;99.90
9790;DHT22;4934;50.852;8.098;2022-09-16T05:03:32;10.60;99.90
9790;DHT22;4934;50.852;8.098;2022-09-16T05:06:04;10.60;99.90
9790;DHT22;4934;50.852;8.098;2022-09-16T05:08:30;10.60;99.90
9790;DHT22;4934;50.852;8.098;2022-09-16T05:11:01;10.60;99.90
9790;DHT22;4934;50.852;8.098;2022-09-16T05:13:26;10.60;99.90
9790;DHT22;4934;50.852;8.098;2022-09-16T05:15:52;10.50;99.90
9790;DHT22;4934;50.852;8.098;2022-09-16T05:18:17;10.40;99.90
9790;DHT22;4934;50.852;8.098;2022-09-16T05:20:43;10.50;99.90
9790;DHT22;4934;50.852;8.098;2022-09-16T05:23:08;10.40;99.90
9790;DHT22;4934;50.852;8.098;2022-09-16T05:25:34;10.30;99.90
9790;DHT22;4934;50.852;8.098;2022-09-16T05:28:00;10.30;99.90
9790;DHT22;4934;50.852;8.098;2022-09-16T05:30:25;10.20;99.90
9790;DHT22;4934;50.852;8.098;2022-09-16T05:32:54;10.30;99.90
9790;DHT22;4934;50.852;8.098;2022-09-16T05:35:20;10.20;99.90
9790;DHT22;4934;50.852;8.098;2022-09-16T05:37:45;10.20;99.90
9790;DHT22;4934;50.852;8.098;2022-09-16T05:40:10;10.20;99.90
9790;DHT22;4934;50.852;8.098;2022-09-16T05:42:36;10.20;99.90
9790;DHT22;4934;50.852;8.098;2022-09-16T05:45:01;10.20;99.90
9790;DHT22;4934;50.852;8.098;2022-09-16T05:47:27;10.20;99.90
9790;DHT22;4934;50.852;8.098;2022-09-16T05:49:52;10.20;99.90
9790;DHT22;4934;50.852;8.098;2022-09-16T05:52:19;10.20;99.90
9790;DHT22;4934;50.852;8.098;2022-09-16T05:54:44;10.10;99.90
9790;DHT22;4934;50.852;8.098;2022-09-16T05:57:10;10.10;99.90
9790;DHT22;4934;50.852;8.098;2022-09-16T05:59:35;10.10;99.90
9790;DHT22;4934;50.852;8.098;2022-09-16T06:02:01;10.10;99.90
9790;DHT22;4934;50.852;8.098;2022-09-16T06:04:26;10.10;99.90
9790;DHT22;4934;50.852;8.098;2022-09-16T06:06:52;10.20;99.90
9790;DHT22;4934;50.852;8.098;2022-09-16T06:09:21;10.20;99.90
9790;DHT22;4934;50.852;8.098;2022-09-16T06:11:47;10.20;99.90
9790;DHT22;4934;50.852;8.098;2022-09-16T06:14:13;10.20;99.90
9790;DHT22;4934;50.852;8.098;2022-09-16T06:16:39;10.20;99.90
9790;DHT22;4934;50.852;8.098;2022-09-16T06:19:06;10.20;99.90
9790;DHT22;4934;50.852;8.098;2022-09-16T06:21:36;10.40;99.90
9790;DHT22;4934;50.852;8.098;2022-09-16T06:24:02;10.50;99.90
9790;DHT22;4934;50.852;8.098;2022-09-16T06:26:27;10.60;99.90
9790;DHT22;4934;50.852;8.098;2022-09-16T06:28:53;10.70;99.90
9790;DHT22;4934;50.852;8.098;2022-09-16T06:31:20;10.80;99.90
9790;DHT22;4934;50.852;8.098;2022-09-16T06:33:46;10.90;99.90
9790;DHT22;4934;50.852;8.098;2022-09-16T06:36:18;11.00;99.90
9790;DHT22;4934;50.852;8.098;2022-09-16T06:38:44;11.00;99.90
9790;DHT22;4934;50.852;8.098;2022-09-16T06:41:10;11.10;99.90
9790;DHT22;4934;50.852;8.098;2022-09-16T06:43:37;11.10;99.90
9790;DHT22;4934;50.852;8.098;2022-09-16T06:46:07;11.20;99.90
9790;DHT22;4934;50.852;8.098;2022-09-16T06:48:41;11.30;99.90
9790;DHT22;4934;50.852;8.098;2022-09-16T06:51:08;11.00;99.90
9790;DHT22;4934;50.852;8.098;2022-09-16T06:53:34;11.00;99.90
9790;DHT22;4934;50.852;8.098;2022-09-16T06:56:00;11.10;99.90
9790;DHT22;4934;50.852;8.098;2022-09-16T06:58:26;11.20;99.90
9790;DHT22;4934;50.852;8.098;2022-09-16T07:00:54;11.30;99.90
9790;DHT22;4934;50.852;8.098;2022-09-16T07:03:19;11.40;99.90
9790;DHT22;4934;50.852;8.098;2022-09-16T07:05:54;11.60;99.90
9790;DHT22;4934;50.852;8.098;2022-09-16T07:08:20;11.70;99.90
9790;DHT22;4934;50.852;8.098;2022-09-16T07:10:53;11.80;99.90
9790;DHT22;4934;50.852;8.098;2022-09-16T07:13:19;11.70;99.90
9790;DHT22;4934;50.852;8.098;2022-09-16T07:15:44;11.70;99.90
9790;DHT22;4934;50.852;8.098;2022-09-16T07:18:10;11.70;99.90
9790;DHT22;4934;50.852;8.098;2022-09-16T07:20:36;11.70;99.90
9790;DHT22;4934;50.852;8.098;2022-09-16T07:23:02;11.80;99.90
9790;DHT22;4934;50.852;8.098;2022-09-16T07:25:27;11.90;99.90
9790;DHT22;4934;50.852;8.098;2022-09-16T07:27:53;12.00;99.90
9790;DHT22;4934;50.852;8.098;2022-09-16T07:30:18;12.00;99.90
9790;DHT22;4934;50.852;8.098;2022-09-16T07:32:44;12.10;99.90
9790;DHT22;4934;50.852;8.098;2022-09-16T07:35:10;12.10;99.90
9790;DHT22;4934;50.852;8.098;2022-09-16T07:37:35;12.10;99.90
9790;DHT22;4934;50.852;8.098;2022-09-16T07:40:01;11.90;99.90
9790;DHT22;4934;50.852;8.098;2022-09-16T07:42:27;11.90;99.90
9790;DHT22;4934;50.852;8.098;2022-09-16T07:44:53;11.90;99.90
9790;DHT22;4934;50.852;8.098;2022-09-16T07:47:18;11.80;99.90
9790;DHT22;4934;50.852;8.098;2022-09-16T07:49:44;12.00;99.90
9790;DHT22;4934;50.852;8.098;2022-09-16T07:52:10;11.80;99.90
9790;DHT22;4934;50.852;8.098;2022-09-16T07:54:35;11.90;99.90
9790;DHT22;4934;50.852;8.098;2022-09-16T07:57:01;11.90;99.90
9790;DHT22;4934;50.852;8.098;2022-09-16T07:59:26;12.10;99.90
9790;DHT22;4934;50.852;8.098;2022-09-16T08:01:52;12.10;99.90
9790;DHT22;4934;50.852;8.098;2022-09-16T08:04:17;12.20;99.90
9790;DHT22;4934;50.852;8.098;2022-09-16T08:06:43;12.20;99.90
9790;DHT22;4934;50.852;8.098;2022-09-16T08:09:09;12.20;99.90
9790;DHT22;4934;50.852;8.098;2022-09-16T08:11:34;12.10;99.90
9790;DHT22;4934;50.852;8.098;2022-09-16T08:14:00;12.10;99.90
9790;DHT22;4934;50.852;8.098;2022-09-16T08:16:26;12.10;99.90
9790;DHT22;4934;50.852;8.098;2022-09-16T08:18:55;12.20;99.90
9790;DHT22;4934;50.852;8.098;2022-09-16T08:21:25;12.30;99.90
9790;DHT22;4934;50.852;8.098;2022-09-16T08:23:52;12.30;99.90
9790;DHT22;4934;50.852;8.098;2022-09-16T08:26:18;12.40;99.90
9790;DHT22;4934;50.852;8.098;2022-09-16T08:28:48;12.60;99.90
9790;DHT22;4934;50.852;8.098;2022-09-16T08:31:13;12.30;99.90
9790;DHT22;4934;50.852;8.098;2022-09-16T08:33:39;12.50;99.90
9790;DHT22;4934;50.852;8.098;2022-09-16T08:38:32;12.60;99.90
9790;DHT22;4934;50.852;8.098;2022-09-16T08:41:16;12.80;99.90
9790;DHT22;4934;50.852;8.098;2022-09-16T08:46:30;12.90;99.90
9790;DHT22;4934;50.852;8.098;2022-09-16T08:49:00;12.80;99.90
9790;DHT22;4934;50.852;8.098;2022-09-16T08:51:27;12.80;99.90
9790;DHT22;4934;50.852;8.098;2022-09-16T08:53:54;12.90;99.90
9790;DHT22;4934;50.852;8.098;2022-09-16T08:56:21;13.00;99.90
9790;DHT22;4934;50.852;8.098;2022-09-16T08:58:50;12.80;99.90
9790;DHT22;4934;50.852;8.098;2022-09-16T09:03:58;12.70;99.90
9790;DHT22;4934;50.852;8.098;2022-09-16T09:06:30;12.70;99.90
9790;DHT22;4934;50.852;8.098;2022-09-16T09:11:45;12.80;99.90
9790;DHT22;4934;50.852;8.098;2022-09-16T09:17:03;12.80;99.90
9790;DHT22;4934;50.852;8.098;2022-09-16T09:22:35;13.40;99.90
9790;DHT22;4934;50.852;8.098;2022-09-16T09:25:20;13.50;99.90
9790;DHT22;4934;50.852;8.098;2022-09-16T09:28:02;13.30;99.90
9790;DHT22;4934;50.852;8.098;2022-09-16T09:30:29;13.30;99.90
9790;DHT22;4934;50.852;8.098;2022-09-16T09:35:38;13.10;99.90
9790;DHT22;4934;50.852;8.098;2022-09-16T09:38:28;13.20;99.90
9790;DHT22;4934;50.852;8.098;2022-09-16T09:41:05;13.10;99.90
9790;DHT22;4934;50.852;8.098;2022-09-16T09:43:46;13.00;99.90
9790;DHT22;4934;50.852;8.098;2022-09-16T09:46:18;12.90;99.90
9790;DHT22;4934;50.852;8.098;2022-09-16T09:48:50;12.80;99.90
9790;DHT22;4934;50.852;8.098;2022-09-16T09:51:21;12.90;99.90
9790;DHT22;4934;50.852;8.098;2022-09-16T09:53:52;12.90;99.90
9790;DHT22;4934;50.852;8.098;2022-09-16T09:56:20;12.80;99.90
9790;DHT22;4934;50.852;8.098;2022-09-16T10:01:24;13.00;99.90
9790;DHT22;4934;50.852;8.098;2022-09-16T10:03:49;13.10;99.90
9790;DHT22;4934;50.852;8.098;2022-09-16T10:06:16;13.20;99.90
9790;DHT22;4934;50.852;8.098;2022-09-16T10:08:44;13.40;99.90
9790;DHT22;4934;50.852;8.098;2022-09-16T10:11:21;13.70;99.90
9790;DHT22;4934;50.852;8.098;2022-09-16T10:13:48;13.90;99.90
9790;DHT22;4934;50.852;8.098;2022-09-16T10:16:15;14.10;99.90
9790;DHT22;4934;50.852;8.098;2022-09-16T10:18:42;14.30;99.90
9790;DHT22;4934;50.852;8.098;2022-09-16T10:21:14;14.30;99.90
9790;DHT22;4934;50.852;8.098;2022-09-16T10:23:40;14.30;99.90
9790;DHT22;4934;50.852;8.098;2022-09-16T10:26:26;14.40;99.90
9790;DHT22;4934;50.852;8.098;2022-09-16T10:31:21;14.40;99.90
9790;DHT22;4934;50.852;8.098;2022-09-16T10:33:48;14.40;99.90
9790;DHT22;4934;50.852;8.098;2022-09-16T10:36:20;14.40;99.90
9790;DHT22;4934;50.852;8.098;2022-09-16T10:38:51;14.20;99.90
9790;DHT22;4934;50.852;8.098;2022-09-16T10:41:21;14.20;99.90
9790;DHT22;4934;50.852;8.098;2022-09-16T10:43:49;14.30;99.90
9790;DHT22;4934;50.852;8.098;2022-09-16T10:46:15;14.20;99.90
9790;DHT22;4934;50.852;8.098;2022-09-16T10:48:41;14.30;99.90
9790;DHT22;4934;50.852;8.098;2022-09-16T10:51:18;14.50;99.90
9790;DHT22;4934;50.852;8.098;2022-09-16T10:53:49;14.70;99.90
9790;DHT22;4934;50.852;8.098;2022-09-16T10:56:16;14.70;99.90
9790;DHT22;4934;50.852;8.098;2022-09-16T10:58:42;14.60;99.90
9790;DHT22;4934;50.852;8.098;2022-09-16T11:14:26;14.70;99.90
9790;DHT22;4934;50.852;8.098;2022-09-16T11:19:40;14.60;99.90
9790;DHT22;4934;50.852;8.098;2022-09-16T11:22:16;14.80;99.90
9790;DHT22;4934;50.852;8.098;2022-09-16T11:30:29;14.90;99.90
9790;DHT22;4934;50.852;8.098;2022-09-16T11:45:53;15.00;99.90
9790;DHT22;4934;50.852;8.098;2022-09-16T11:48:34;15.00;99.90
9790;DHT22;4934;50.852;8.098;2022-09-16T11:56:26;15.50;99.90
9790;DHT22;4934;50.852;8.098;2022-09-16T11:58:56;15.40;99.90
9790;DHT22;4934;50.852;8.098;2022-09-16T12:03:53;15.00;99.90
9790;DHT22;4934;50.852;8.098;2022-09-16T12:11:22;14.10;99.90
9790;DHT22;4934;50.852;8.098;2022-09-16T12:13:50;13.20;99.90
9790;DHT22;4934;50.852;8.098;2022-09-16T12:16:30;12.60;99.90
9790;DHT22;4934;50.852;8.098;2022-09-16T12:18:58;12.40;99.90
9790;DHT22;4934;50.852;8.098;2022-09-16T12:21:28;12.50;99.90
9790;DHT22;4934;50.852;8.098;2022-09-16T12:23:56;12.70;99.90
9790;DHT22;4934;50.852;8.098;2022-09-16T12:26:24;12.80;99.90
9790;DHT22;4934;50.852;8.098;2022-09-16T12:29:02;12.90;99.90
9790;DHT22;4934;50.852;8.098;2022-09-16T12:34:15;13.10;99.90
9790;DHT22;4934;50.852;8.098;2022-09-16T12:36:44;13.20;99.90
9790;DHT22;4934;50.852;8.098;2022-09-16T12:39:12;13.20;99.90
9790;DHT22;4934;50.852;8.098;2022-09-16T12:47:09;13.30;99.90
9790;DHT22;4934;50.852;8.098;2022-09-16T12:57:23;13.20;99.90
9790;DHT22;4934;50.852;8.098;2022-09-16T13:02:34;13.20;99.90
9790;DHT22;4934;50.852;8.098;2022-09-16T13:05:08;13.30;99.90
9790;DHT22;4934;50.852;8.098;2022-09-16T13:07:35;13.20;99.90
9790;DHT22;4934;50.852;8.098;2022-09-16T13:10:02;13.20;99.90
9790;DHT22;4934;50.852;8.098;2022-09-16T13:12:28;13.20;99.90
9790;DHT22;4934;50.852;8.098;2022-09-16T13:14:56;13.20;99.90
9790;DHT22;4934;50.852;8.098;2022-09-16T13:25:25;12.70;99.90
9790;DHT22;4934;50.852;8.098;2022-09-16T13:27:56;12.80;99.90
9790;DHT22;4934;50.852;8.098;2022-09-16T13:37:42;13.30;99.90
9790;DHT22;4934;50.852;8.098;2022-09-16T13:40:51;13.50;99.90
9790;DHT22;4934;50.852;8.098;2022-09-16T13:43:11;13.50;99.90
9790;DHT22;4934;50.852;8.098;2022-09-16T13:45:38;13.40;99.90
9790;DHT22;4934;50.852;8.098;2022-09-16T13:48:15;13.50;99.90
9790;DHT22;4934;50.852;8.098;2022-09-16T13:50:46;13.10;99.90
9790;DHT22;4934;50.852;8.098;2022-09-16T13:53:47;13.20;99.90
9790;DHT22;4934;50.852;8.098;2022-09-16T13:59:05;13.00;99.90
9790;DHT22;4934;50.852;8.098;2022-09-16T14:07:10;12.80;99.90
9790;DHT22;4934;50.852;8.098;2022-09-16T14:14:41;12.70;99.90
9790;DHT22;4934;50.852;8.098;2022-09-16T14:17:15;12.60;99.90
9790;DHT22;4934;50.852;8.098;2022-09-16T14:19:41;12.50;99.90
9790;DHT22;4934;50.852;8.098;2022-09-16T14:22:14;12.60;99.90
9790;DHT22;4934;50.852;8.098;2022-09-16T14:24:41;12.50;99.90
9790;DHT22;4934;50.852;8.098;2022-09-16T14:29:55;12.30;99.90
9790;DHT22;4934;50.852;8.098;2022-09-16T14:34:51;12.20;99.90
9790;DHT22;4934;50.852;8.098;2022-09-16T14:37:17;12.10;99.90
9790;DHT22;4934;50.852;8.098;2022-09-16T14:39:43;12.00;99.90
9790;DHT22;4934;50.852;8.098;2022-09-16T14:42:10;11.90;99.90
9790;DHT22;4934;50.852;8.098;2022-09-16T14:44:46;11.90;99.90
9790;DHT22;4934;50.852;8.098;2022-09-16T14:47:17;11.90;99.90
9790;DHT22;4934;50.852;8.098;2022-09-16T14:49:45;11.90;99.90
9790;DHT22;4934;50.852;8.098;2022-09-16T14:52:21;11.90;99.90
9790;DHT22;4934;50.852;8.098;2022-09-16T14:54:47;12.00;99.90
9790;DHT22;4934;50.852;8.098;2022-09-16T14:57:18;11.60;99.90
9790;DHT22;4934;50.852;8.098;2022-09-16T14:59:44;11.70;99.90
9790;DHT22;4934;50.852;8.098;2022-09-16T15:02:20;11.70;99.90
9790;DHT22;4934;50.852;8.098;2022-09-16T15:04:50;11.90;99.90
9790;DHT22;4934;50.852;8.098;2022-09-16T15:07:18;11.90;99.90
9790;DHT22;4934;50.852;8.098;2022-09-16T15:09:48;12.10;99.90
9790;DHT22;4934;50.852;8.098;2022-09-16T15:12:17;12.30;99.90
9790;DHT22;4934;50.852;8.098;2022-09-16T15:14:43;12.30;99.90
9790;DHT22;4934;50.852;8.098;2022-09-16T15:17:13;12.40;99.90
9790;DHT22;4934;50.852;8.098;2022-09-16T15:19:40;12.50;99.90
9790;DHT22;4934;50.852;8.098;2022-09-16T15:22:07;12.40;99.90
9790;DHT22;4934;50.852;8.098;2022-09-16T15:24:33;12.40;99.90
9790;DHT22;4934;50.852;8.098;2022-09-16T15:27:00;12.50;99.90
9790;DHT22;4934;50.852;8.098;2022-09-16T15:29:27;12.50;99.90
9790;DHT22;4934;50.852;8.098;2022-09-16T15:31:54;12.40;99.90
9790;DHT22;4934;50.852;8.098;2022-09-16T15:34:30;12.40;99.90
9790;DHT22;4934;50.852;8.098;2022-09-16T15:36:56;12.40;99.90
9790;DHT22;4934;50.852;8.098;2022-09-16T15:41:48;12.20;99.90
9790;DHT22;4934;50.852;8.098;2022-09-16T15:44:26;12.40;99.90
9790;DHT22;4934;50.852;8.098;2022-09-16T15:46:52;12.50;99.90
9790;DHT22;4934;50.852;8.098;2022-09-16T15:49:17;12.60;99.90
9790;DHT22;4934;50.852;8.098;2022-09-16T15:51:45;12.60;99.90
9790;DHT22;4934;50.852;8.098;2022-09-16T15:54:16;12.70;99.90
9790;DHT22;4934;50.852;8.098;2022-09-16T15:56:56;12.70;99.90
9790;DHT22;4934;50.852;8.098;2022-09-16T16:02:50;12.40;99.90
9790;DHT22;4934;50.852;8.098;2022-09-16T16:05:27;12.60;99.90
9790;DHT22;4934;50.852;8.098;2022-09-16T16:08:02;12.50;99.90
9790;DHT22;4934;50.852;8.098;2022-09-16T16:10:29;12.50;99.90
9790;DHT22;4934;50.852;8.098;2022-09-16T16:12:56;12.50;99.90
9790;DHT22;4934;50.852;8.098;2022-09-16T16:15:27;12.50;99.90
9790;DHT22;4934;50.852;8.098;2022-09-16T16:17:53;12.50;99.90
9790;DHT22;4934;50.852;8.098;2022-09-16T16:20:22;12.20;99.90
9790;DHT22;4934;50.852;8.098;2022-09-16T16:22:48;12.30;99.90
9790;DHT22;4934;50.852;8.098;2022-09-16T16:25:17;12.30;99.90
9790;DHT22;4934;50.852;8.098;2022-09-16T16:27:43;12.20;99.90
9790;DHT22;4934;50.852;8.098;2022-09-16T16:30:09;12.20;99.90
9790;DHT22;4934;50.852;8.098;2022-09-16T16:32:34;12.30;99.90
9790;DHT22;4934;50.852;8.098;2022-09-16T16:35:03;12.30;99.90
9790;DHT22;4934;50.852;8.098;2022-09-16T16:37:31;12.40;99.90
9790;DHT22;4934;50.852;8.098;2022-09-16T16:40:00;12.50;99.90
9790;DHT22;4934;50.852;8.098;2022-09-16T16:42:26;12.20;99.90
9790;DHT22;4934;50.852;8.098;2022-09-16T16:44:53;12.30;99.90
9790;DHT22;4934;50.852;8.098;2022-09-16T16:47:18;12.40;99.90
9790;DHT22;4934;50.852;8.098;2022-09-16T16:49:44;12.30;99.90
9790;DHT22;4934;50.852;8.098;2022-09-16T16:52:09;12.20;99.90
9790;DHT22;4934;50.852;8.098;2022-09-16T16:54:35;12.20;99.90
9790;DHT22;4934;50.852;8.098;2022-09-16T16:57:03;12.20;99.90
9790;DHT22;4934;50.852;8.098;2022-09-16T16:59:29;12.10;99.90
9790;DHT22;4934;50.852;8.098;2022-09-16T17:01:56;12.00;99.90
9790;DHT22;4934;50.852;8.098;2022-09-16T17:04:24;12.00;99.90
9790;DHT22;4934;50.852;8.098;2022-09-16T17:06:50;11.80;99.90
9790;DHT22;4934;50.852;8.098;2022-09-16T17:09:16;11.80;99.90
9790;DHT22;4934;50.852;8.098;2022-09-16T17:12:00;11.70;99.90
9790;DHT22;4934;50.852;8.098;2022-09-16T17:14:27;11.60;99.90
9790;DHT22;4934;50.852;8.098;2022-09-16T17:16:54;11.50;99.90
9790;DHT22;4934;50.852;8.098;2022-09-16T17:19:20;11.40;99.90
9790;DHT22;4934;50.852;8.098;2022-09-16T17:21:46;11.40;99.90
9790;DHT22;4934;50.852;8.098;2022-09-16T17:24:14;11.30;99.90
9790;DHT22;4934;50.852;8.098;2022-09-16T17:26:43;11.10;99.90
9790;DHT22;4934;50.852;8.098;2022-09-16T17:29:09;11.10;99.90
9790;DHT22;4934;50.852;8.098;2022-09-16T17:31:35;11.20;99.90
9790;DHT22;4934;50.852;8.098;2022-09-16T17:34:04;11.00;99.90
9790;DHT22;4934;50.852;8.098;2022-09-16T17:36:40;10.90;99.90
9790;DHT22;4934;50.852;8.098;2022-09-16T17:39:09;10.80;99.90
9790;DHT22;4934;50.852;8.098;2022-09-16T17:41:37;10.80;99.90
9790;DHT22;4934;50.852;8.098;2022-09-16T17:44:05;10.80;99.90
9790;DHT22;4934;50.852;8.098;2022-09-16T17:46:31;10.80;99.90
9790;DHT22;4934;50.852;8.098;2022-09-16T17:49:00;10.80;99.90
9790;DHT22;4934;50.852;8.098;2022-09-16T17:51:26;10.80;99.90
9790;DHT22;4934;50.852;8.098;2022-09-16T17:53:52;10.80;99.90
9790;DHT22;4934;50.852;8.098;2022-09-16T17:56:17;10.80;99.90
9790;DHT22;4934;50.852;8.098;2022-09-16T17:58:44;10.80;99.90
9790;DHT22;4934;50.852;8.098;2022-09-16T18:01:14;10.80;99.90
9790;DHT22;4934;50.852;8.098;2022-09-16T18:03:41;10.80;99.90
9790;DHT22;4934;50.852;8.098;2022-09-16T18:06:11;10.70;99.90
9790;DHT22;4934;50.852;8.098;2022-09-16T18:08:37;10.60;99.90
9790;DHT22;4934;50.852;8.098;2022-09-16T18:11:03;10.60;99.90
9790;DHT22;4934;50.852;8.098;2022-09-16T18:13:29;10.60;99.90
9790;DHT22;4934;50.852;8.098;2022-09-16T18:15:55;10.40;99.90
9790;DHT22;4934;50.852;8.098;2022-09-16T18:18:25;10.50;99.90
9790;DHT22;4934;50.852;8.098;2022-09-16T18:20:52;10.40;99.90
9790;DHT22;4934;50.852;8.098;2022-09-16T18:23:21;10.50;99.90
9790;DHT22;4934;50.852;8.098;2022-09-16T18:25:46;10.50;99.90
9790;DHT22;4934;50.852;8.098;2022-09-16T18:28:12;10.50;99.90
9790;DHT22;4934;50.852;8.098;2022-09-16T18:30:38;10.40;99.90
9790;DHT22;4934;50.852;8.098;2022-09-16T18:33:03;10.40;99.90
9790;DHT22;4934;50.852;8.098;2022-09-16T18:35:29;10.30;99.90
9790;DHT22;4934;50.852;8.098;2022-09-16T18:37:55;10.30;99.90
9790;DHT22;4934;50.852;8.098;2022-09-16T18:40:21;10.30;99.90
9790;DHT22;4934;50.852;8.098;2022-09-16T18:42:46;10.30;99.90
9790;DHT22;4934;50.852;8.098;2022-09-16T18:45:12;10.20;99.90
9790;DHT22;4934;50.852;8.098;2022-09-16T18:47:37;10.20;99.90
9790;DHT22;4934;50.852;8.098;2022-09-16T18:50:03;10.20;99.90
9790;DHT22;4934;50.852;8.098;2022-09-16T18:52:29;10.20;99.90
9790;DHT22;4934;50.852;8.098;2022-09-16T18:54:54;10.10;99.90
9790;DHT22;4934;50.852;8.098;2022-09-16T18:57:19;10.10;99.90
9790;DHT22;4934;50.852;8.098;2022-09-16T18:59:47;10.10;99.90
9790;DHT22;4934;50.852;8.098;2022-09-16T19:02:13;10.10;99.90